sensor_id;sensor_type;location;lat;lon;timestamp;P1;durP1;ratioP1;P2;durP2;ratioP2
53253;SDS011;39148;53.332;6.922;2022-09-09T00:04:47;3.92;;;1.67;;
53253;SDS011;39148;53.332;6.922;2022-09-09T00:12:57;4.53;;;1.70;;
53253;SDS011;39148;53.332;6.922;2022-09-09T00:15:28;3.85;;;1.52;;
53253;SDS011;39148;53.332;6.922;2022-09-09T00:18:24;5.70;;;1.77;;
53253;SDS011;39148;53.332;6.922;2022-09-09T00:21:04;4.43;;;1.70;;
53253;SDS011;39148;53.332;6.922;2022-09-09T00:23:37;3.95;;;1.70;;
53253;SDS011;39148;53.332;6.922;2022-09-09T00:26:48;3.65;;;1.70;;
53253;SDS011;39148;53.332;6.922;2022-09-09T00:29:20;4.80;;;1.60;;
53253;SDS011;39148;53.332;6.922;2022-09-09T00:31:59;3.95;;;1.48;;
53253;SDS011;39148;53.332;6.922;2022-09-09T00:35:12;3.95;;;1.77;;
53253;SDS011;39148;53.332;6.922;2022-09-09T00:37:47;3.90;;;1.77;;
53253;SDS011;39148;53.332;6.922;2022-09-09T00:42:46;3.90;;;1.60;;
53253;SDS011;39148;53.332;6.922;2022-09-09T00:45:19;4.33;;;2.00;;
53253;SDS011;39148;53.332;6.922;2022-09-09T00:48:01;4.13;;;1.85;;
53253;SDS011;39148;53.332;6.922;2022-09-09T00:50:50;4.97;;;1.90;;
53253;SDS011;39148;53.332;6.922;2022-09-09T00:56:08;5.90;;;2.08;;
53253;SDS011;39148;53.332;6.922;2022-09-09T00:58:42;6.03;;;2.03;;
53253;SDS011;39148;53.332;6.922;2022-09-09T01:01:15;6.35;;;1.77;;
53253;SDS011;39148;53.332;6.922;2022-09-09T01:03:43;3.53;;;1.70;;
53253;SDS011;39148;53.332;6.922;2022-09-09T01:09:21;4.13;;;1.92;;
53253;SDS011;39148;53.332;6.922;2022-09-09T01:17:17;5.18;;;1.98;;
53253;SDS011;39148;53.332;6.922;2022-09-09T01:22:49;4.38;;;1.85;;
53253;SDS011;39148;53.332;6.922;2022-09-09T01:28:34;4.90;;;1.88;;
53253;SDS011;39148;53.332;6.922;2022-09-09T01:31:03;5.03;;;1.88;;
53253;SDS011;39148;53.332;6.922;2022-09-09T01:33:30;5.22;;;2.17;;
53253;SDS011;39148;53.332;6.922;2022-09-09T01:38:25;3.90;;;1.73;;
53253;SDS011;39148;53.332;6.922;2022-09-09T01:40:53;4.10;;;1.50;;
53253;SDS011;39148;53.332;6.922;2022-09-09T01:43:21;3.55;;;1.80;;
53253;SDS011;39148;53.332;6.922;2022-09-09T01:45:49;4.28;;;1.67;;
53253;SDS011;39148;53.332;6.922;2022-09-09T01:48:18;4.85;;;2.30;;
53253;SDS011;39148;53.332;6.922;2022-09-09T01:50:45;5.30;;;2.15;;
53253;SDS011;39148;53.332;6.922;2022-09-09T01:53:11;4.63;;;1.80;;
53253;SDS011;39148;53.332;6.922;2022-09-09T01:55:39;5.60;;;2.45;;
53253;SDS011;39148;53.332;6.922;2022-09-09T01:58:19;3.58;;;1.90;;
53253;SDS011;39148;53.332;6.922;2022-09-09T02:01:33;4.43;;;1.70;;
53253;SDS011;39148;53.332;6.922;2022-09-09T02:03:52;3.92;;;1.90;;
53253;SDS011;39148;53.332;6.922;2022-09-09T02:08:56;3.85;;;2.05;;
53253;SDS011;39148;53.332;6.922;2022-09-09T02:11:22;4.15;;;1.60;;
53253;SDS011;39148;53.332;6.922;2022-09-09T02:13:54;3.92;;;2.03;;
53253;SDS011;39148;53.332;6.922;2022-09-09T02:21:33;5.93;;;1.90;;
53253;SDS011;39148;53.332;6.922;2022-09-09T02:24:04;3.95;;;1.90;;
53253;SDS011;39148;53.332;6.922;2022-09-09T02:26:34;4.30;;;1.92;;
53253;SDS011;39148;53.332;6.922;2022-09-09T02:29:07;4.38;;;1.85;;
53253;SDS011;39148;53.332;6.922;2022-09-09T02:31:37;3.75;;;1.80;;
53253;SDS011;39148;53.332;6.922;2022-09-09T02:34:04;4.40;;;1.90;;
53253;SDS011;39148;53.332;6.922;2022-09-09T02:36:33;5.70;;;2.13;;
53253;SDS011;39148;53.332;6.922;2022-09-09T02:39:00;4.95;;;1.92;;
53253;SDS011;39148;53.332;6.922;2022-09-09T02:41:31;3.58;;;1.83;;
53253;SDS011;39148;53.332;6.922;2022-09-09T02:44:00;5.20;;;1.80;;
53253;SDS011;39148;53.332;6.922;2022-09-09T02:49:28;7.15;;;2.33;;
53253;SDS011;39148;53.332;6.922;2022-09-09T02:52:15;4.72;;;2.00;;
53253;SDS011;39148;53.332;6.922;2022-09-09T02:55:54;5.20;;;2.10;;
53253;SDS011;39148;53.332;6.922;2022-09-09T02:58:00;5.95;;;2.22;;
53253;SDS011;39148;53.332;6.922;2022-09-09T03:00:31;3.45;;;1.70;;
53253;SDS011;39148;53.332;6.922;2022-09-09T03:02:57;3.90;;;2.10;;
53253;SDS011;39148;53.332;6.922;2022-09-09T03:05:23;5.28;;;2.13;;
53253;SDS011;39148;53.332;6.922;2022-09-09T03:07:49;4.72;;;1.70;;
53253;SDS011;39148;53.332;6.922;2022-09-09T03:10:15;4.20;;;2.10;;
53253;SDS011;39148;53.332;6.922;2022-09-09T03:12:42;4.68;;;2.08;;
53253;SDS011;39148;53.332;6.922;2022-09-09T03:15:08;4.00;;;2.00;;
53253;SDS011;39148;53.332;6.922;2022-09-09T03:17:34;3.33;;;1.80;;
53253;SDS011;39148;53.332;6.922;2022-09-09T03:20:01;3.55;;;1.80;;
53253;SDS011;39148;53.332;6.922;2022-09-09T03:22:30;4.35;;;1.80;;
53253;SDS011;39148;53.332;6.922;2022-09-09T03:24:56;4.45;;;1.80;;
53253;SDS011;39148;53.332;6.922;2022-09-09T03:27:22;3.42;;;1.70;;
53253;SDS011;39148;53.332;6.922;2022-09-09T03:29:47;5.35;;;2.20;;
53253;SDS011;39148;53.332;6.922;2022-09-09T03:32:16;3.88;;;1.75;;
53253;SDS011;39148;53.332;6.922;2022-09-09T03:34:42;4.85;;;1.98;;
53253;SDS011;39148;53.332;6.922;2022-09-09T03:37:08;4.72;;;1.75;;
53253;SDS011;39148;53.332;6.922;2022-09-09T03:39:34;5.63;;;2.00;;
53253;SDS011;39148;53.332;6.922;2022-09-09T03:41:59;4.65;;;1.88;;
53253;SDS011;39148;53.332;6.922;2022-09-09T03:44:28;4.80;;;2.05;;
53253;SDS011;39148;53.332;6.922;2022-09-09T03:46:55;4.60;;;1.70;;
53253;SDS011;39148;53.332;6.922;2022-09-09T03:49:21;3.55;;;1.90;;
53253;SDS011;39148;53.332;6.922;2022-09-09T03:51:47;4.93;;;1.95;;
53253;SDS011;39148;53.332;6.922;2022-09-09T03:54:13;3.83;;;1.75;;
53253;SDS011;39148;53.332;6.922;2022-09-09T03:56:39;3.95;;;2.20;;
53253;SDS011;39148;53.332;6.922;2022-09-09T03:59:06;3.83;;;1.77;;
53253;SDS011;39148;53.332;6.922;2022-09-09T04:01:33;3.75;;;1.60;;
53253;SDS011;39148;53.332;6.922;2022-09-09T04:03:59;5.40;;;1.67;;
53253;SDS011;39148;53.332;6.922;2022-09-09T04:06:27;3.88;;;1.90;;
53253;SDS011;39148;53.332;6.922;2022-09-09T04:08:53;5.40;;;1.70;;
53253;SDS011;39148;53.332;6.922;2022-09-09T04:11:20;5.07;;;1.85;;
53253;SDS011;39148;53.332;6.922;2022-09-09T04:13:46;4.70;;;1.60;;
53253;SDS011;39148;53.332;6.922;2022-09-09T04:16:12;5.18;;;1.70;;
53253;SDS011;39148;53.332;6.922;2022-09-09T04:18:39;5.13;;;1.73;;
53253;SDS011;39148;53.332;6.922;2022-09-09T04:21:05;4.18;;;1.52;;
53253;SDS011;39148;53.332;6.922;2022-09-09T04:23:32;2.03;;;1.02;;
53253;SDS011;39148;53.332;6.922;2022-09-09T04:25:59;3.10;;;1.40;;
53253;SDS011;39148;53.332;6.922;2022-09-09T04:28:27;3.83;;;1.42;;
53253;SDS011;39148;53.332;6.922;2022-09-09T04:30:54;3.67;;;1.27;;
53253;SDS011;39148;53.332;6.922;2022-09-09T04:33:23;3.38;;;1.30;;
53253;SDS011;39148;53.332;6.922;2022-09-09T04:35:51;4.05;;;1.20;;
53253;SDS011;39148;53.332;6.922;2022-09-09T04:38:19;3.78;;;1.17;;
53253;SDS011;39148;53.332;6.922;2022-09-09T04:40:47;2.60;;;1.10;;
53253;SDS011;39148;53.332;6.922;2022-09-09T04:43:14;3.22;;;1.60;;
53253;SDS011;39148;53.332;6.922;2022-09-09T04:45:40;2.75;;;0.95;;
53253;SDS011;39148;53.332;6.922;2022-09-09T04:48:06;3.30;;;0.90;;
53253;SDS011;39148;53.332;6.922;2022-09-09T04:50:34;2.78;;;0.90;;
53253;SDS011;39148;53.332;6.922;2022-09-09T04:53:01;3.58;;;1.02;;
53253;SDS011;39148;53.332;6.922;2022-09-09T04:55:30;2.78;;;0.90;;
53253;SDS011;39148;53.332;6.922;2022-09-09T04:57:56;3.40;;;1.05;;
53253;SDS011;39148;53.332;6.922;2022-09-09T05:00:23;4.65;;;0.90;;
53253;SDS011;39148;53.332;6.922;2022-09-09T05:02:49;4.53;;;0.95;;
53253;SDS011;39148;53.332;6.922;2022-09-09T05:05:16;2.97;;;0.90;;
53253;SDS011;39148;53.332;6.922;2022-09-09T05:07:41;2.70;;;1.00;;
53253;SDS011;39148;53.332;6.922;2022-09-09T05:10:08;3.03;;;0.80;;
53253;SDS011;39148;53.332;6.922;2022-09-09T05:12:35;3.00;;;0.80;;
53253;SDS011;39148;53.332;6.922;2022-09-09T05:15:00;3.08;;;0.70;;
53253;SDS011;39148;53.332;6.922;2022-09-09T05:17:26;5.68;;;0.98;;
53253;SDS011;39148;53.332;6.922;2022-09-09T05:19:52;2.63;;;0.90;;
53253;SDS011;39148;53.332;6.922;2022-09-09T05:22:21;3.75;;;1.08;;
53253;SDS011;39148;53.332;6.922;2022-09-09T05:24:48;1.63;;;0.57;;
53253;SDS011;39148;53.332;6.922;2022-09-09T05:27:16;4.03;;;1.13;;
53253;SDS011;39148;53.332;6.922;2022-09-09T05:29:44;3.42;;;0.80;;
53253;SDS011;39148;53.332;6.922;2022-09-09T05:32:10;4.43;;;0.80;;
53253;SDS011;39148;53.332;6.922;2022-09-09T05:34:36;3.38;;;0.73;;
53253;SDS011;39148;53.332;6.922;2022-09-09T05:37:05;2.80;;;0.70;;
53253;SDS011;39148;53.332;6.922;2022-09-09T05:39:32;2.55;;;0.80;;
53253;SDS011;39148;53.332;6.922;2022-09-09T05:41:58;4.35;;;1.20;;
53253;SDS011;39148;53.332;6.922;2022-09-09T05:44:24;2.90;;;0.80;;
53253;SDS011;39148;53.332;6.922;2022-09-09T05:46:52;3.38;;;0.70;;
53253;SDS011;39148;53.332;6.922;2022-09-09T05:49:19;2.80;;;0.93;;
53253;SDS011;39148;53.332;6.922;2022-09-09T05:51:45;3.15;;;0.80;;
53253;SDS011;39148;53.332;6.922;2022-09-09T05:54:11;2.83;;;0.80;;
53253;SDS011;39148;53.332;6.922;2022-09-09T05:56:40;2.78;;;0.98;;
53253;SDS011;39148;53.332;6.922;2022-09-09T05:59:06;2.90;;;0.80;;
53253;SDS011;39148;53.332;6.922;2022-09-09T06:01:32;3.03;;;0.90;;
53253;SDS011;39148;53.332;6.922;2022-09-09T06:03:59;3.60;;;0.90;;
53253;SDS011;39148;53.332;6.922;2022-09-09T06:06:26;3.88;;;1.10;;
53253;SDS011;39148;53.332;6.922;2022-09-09T06:08:57;3.53;;;1.00;;
53253;SDS011;39148;53.332;6.922;2022-09-09T06:11:25;1.98;;;0.77;;
53253;SDS011;39148;53.332;6.922;2022-09-09T06:13:52;2.35;;;0.80;;
53253;SDS011;39148;53.332;6.922;2022-09-09T06:16:20;4.38;;;1.00;;
53253;SDS011;39148;53.332;6.922;2022-09-09T06:18:54;3.78;;;0.90;;
53253;SDS011;39148;53.332;6.922;2022-09-09T06:21:22;2.53;;;1.10;;
53253;SDS011;39148;53.332;6.922;2022-09-09T06:23:48;3.47;;;0.98;;
53253;SDS011;39148;53.332;6.922;2022-09-09T06:26:16;3.15;;;0.90;;
53253;SDS011;39148;53.332;6.922;2022-09-09T06:28:44;2.72;;;0.90;;
53253;SDS011;39148;53.332;6.922;2022-09-09T06:31:12;2.65;;;1.10;;
53253;SDS011;39148;53.332;6.922;2022-09-09T06:33:40;3.42;;;1.10;;
53253;SDS011;39148;53.332;6.922;2022-09-09T06:36:07;2.35;;;0.90;;
53253;SDS011;39148;53.332;6.922;2022-09-09T06:38:44;2.97;;;1.13;;
53253;SDS011;39148;53.332;6.922;2022-09-09T06:41:10;3.67;;;1.30;;
53253;SDS011;39148;53.332;6.922;2022-09-09T06:43:38;2.67;;;0.93;;
53253;SDS011;39148;53.332;6.922;2022-09-09T06:48:31;3.75;;;1.20;;
53253;SDS011;39148;53.332;6.922;2022-09-09T06:51:39;3.15;;;1.02;;
53253;SDS011;39148;53.332;6.922;2022-09-09T06:53:49;3.10;;;1.15;;
53253;SDS011;39148;53.332;6.922;2022-09-09T06:58:46;3.28;;;1.08;;
53253;SDS011;39148;53.332;6.922;2022-09-09T07:01:17;2.97;;;1.00;;
53253;SDS011;39148;53.332;6.922;2022-09-09T07:03:49;2.88;;;0.95;;
53253;SDS011;39148;53.332;6.922;2022-09-09T07:06:20;3.33;;;1.50;;
53253;SDS011;39148;53.332;6.922;2022-09-09T07:08:58;3.53;;;0.88;;
53253;SDS011;39148;53.332;6.922;2022-09-09T07:11:29;2.38;;;0.95;;
53253;SDS011;39148;53.332;6.922;2022-09-09T07:13:58;3.08;;;0.90;;
53253;SDS011;39148;53.332;6.922;2022-09-09T07:16:25;4.40;;;0.95;;
53253;SDS011;39148;53.332;6.922;2022-09-09T07:18:52;2.65;;;0.93;;
53253;SDS011;39148;53.332;6.922;2022-09-09T07:21:23;3.38;;;1.00;;
53253;SDS011;39148;53.332;6.922;2022-09-09T07:23:51;3.22;;;1.00;;
53253;SDS011;39148;53.332;6.922;2022-09-09T07:26:18;3.60;;;1.20;;
53253;SDS011;39148;53.332;6.922;2022-09-09T07:28:46;2.67;;;1.00;;
53253;SDS011;39148;53.332;6.922;2022-09-09T07:31:13;2.78;;;0.95;;
53253;SDS011;39148;53.332;6.922;2022-09-09T07:33:41;1.88;;;0.85;;
53253;SDS011;39148;53.332;6.922;2022-09-09T07:36:09;2.60;;;1.00;;
53253;SDS011;39148;53.332;6.922;2022-09-09T07:38:47;3.40;;;1.13;;
53253;SDS011;39148;53.332;6.922;2022-09-09T07:41:20;2.95;;;0.90;;
53253;SDS011;39148;53.332;6.922;2022-09-09T07:43:48;1.45;;;0.73;;
53253;SDS011;39148;53.332;6.922;2022-09-09T07:46:16;2.90;;;0.93;;
53253;SDS011;39148;53.332;6.922;2022-09-09T07:48:51;3.03;;;0.80;;
53253;SDS011;39148;53.332;6.922;2022-09-09T07:51:24;1.83;;;0.73;;
53253;SDS011;39148;53.332;6.922;2022-09-09T07:53:53;2.00;;;0.70;;
53253;SDS011;39148;53.332;6.922;2022-09-09T07:56:22;2.88;;;0.85;;
53253;SDS011;39148;53.332;6.922;2022-09-09T07:58:48;3.50;;;1.10;;
53253;SDS011;39148;53.332;6.922;2022-09-09T08:01:17;4.50;;;1.20;;
53253;SDS011;39148;53.332;6.922;2022-09-09T08:03:53;3.85;;;0.90;;
53253;SDS011;39148;53.332;6.922;2022-09-09T08:06:20;3.00;;;0.95;;
53253;SDS011;39148;53.332;6.922;2022-09-09T08:08:49;3.40;;;0.90;;
53253;SDS011;39148;53.332;6.922;2022-09-09T08:11:16;2.30;;;0.90;;
53253;SDS011;39148;53.332;6.922;2022-09-09T08:13:43;2.45;;;0.90;;
53253;SDS011;39148;53.332;6.922;2022-09-09T08:18:36;2.83;;;0.90;;
53253;SDS011;39148;53.332;6.922;2022-09-09T08:21:09;2.88;;;0.80;;
53253;SDS011;39148;53.332;6.922;2022-09-09T08:23:42;3.10;;;1.20;;
53253;SDS011;39148;53.332;6.922;2022-09-09T08:26:11;2.78;;;0.90;;
53253;SDS011;39148;53.332;6.922;2022-09-09T08:28:41;4.20;;;1.13;;
53253;SDS011;39148;53.332;6.922;2022-09-09T08:31:15;2.63;;;0.90;;
53253;SDS011;39148;53.332;6.922;2022-09-09T08:33:43;2.03;;;0.82;;
53253;SDS011;39148;53.332;6.922;2022-09-09T08:36:17;3.35;;;0.90;;
53253;SDS011;39148;53.332;6.922;2022-09-09T08:38:48;2.67;;;0.65;;
53253;SDS011;39148;53.332;6.922;2022-09-09T08:43:47;1.70;;;0.60;;
53253;SDS011;39148;53.332;6.922;2022-09-09T08:49:05;2.20;;;0.82;;
53253;SDS011;39148;53.332;6.922;2022-09-09T08:51:47;2.63;;;0.90;;
53253;SDS011;39148;53.332;6.922;2022-09-09T08:54:14;2.20;;;0.70;;
53253;SDS011;39148;53.332;6.922;2022-09-09T08:56:40;2.65;;;0.73;;
53253;SDS011;39148;53.332;6.922;2022-09-09T08:59:07;2.25;;;0.82;;
53253;SDS011;39148;53.332;6.922;2022-09-09T09:07:23;2.40;;;0.65;;
53253;SDS011;39148;53.332;6.922;2022-09-09T09:10:24;1.73;;;0.70;;
53253;SDS011;39148;53.332;6.922;2022-09-09T09:13:01;3.17;;;0.70;;
53253;SDS011;39148;53.332;6.922;2022-09-09T09:15:31;1.35;;;0.65;;
53253;SDS011;39148;53.332;6.922;2022-09-09T09:18:03;1.98;;;0.63;;
53253;SDS011;39148;53.332;6.922;2022-09-09T09:20:37;2.25;;;0.70;;
53253;SDS011;39148;53.332;6.922;2022-09-09T09:23:29;2.70;;;1.10;;
53253;SDS011;39148;53.332;6.922;2022-09-09T09:26:06;2.83;;;0.70;;
53253;SDS011;39148;53.332;6.922;2022-09-09T09:28:34;1.60;;;0.60;;
53253;SDS011;39148;53.332;6.922;2022-09-09T09:31:05;2.03;;;0.80;;
53253;SDS011;39148;53.332;6.922;2022-09-09T09:36:06;4.28;;;0.90;;
53253;SDS011;39148;53.332;6.922;2022-09-09T09:38:33;2.88;;;0.90;;
53253;SDS011;39148;53.332;6.922;2022-09-09T09:41:00;4.13;;;0.70;;
53253;SDS011;39148;53.332;6.922;2022-09-09T09:45:59;5.32;;;0.80;;
53253;SDS011;39148;53.332;6.922;2022-09-09T09:48:26;2.50;;;0.80;;
53253;SDS011;39148;53.332;6.922;2022-09-09T09:53:24;1.52;;;0.55;;
53253;SDS011;39148;53.332;6.922;2022-09-09T09:55:59;2.42;;;0.73;;
53253;SDS011;39148;53.332;6.922;2022-09-09T09:58:27;2.50;;;0.77;;
53253;SDS011;39148;53.332;6.922;2022-09-09T10:00:57;2.95;;;1.17;;
53253;SDS011;39148;53.332;6.922;2022-09-09T10:03:25;3.10;;;0.77;;
53253;SDS011;39148;53.332;6.922;2022-09-09T10:05:53;1.75;;;0.80;;
53253;SDS011;39148;53.332;6.922;2022-09-09T10:08:21;2.08;;;0.80;;
53253;SDS011;39148;53.332;6.922;2022-09-09T10:14:16;2.63;;;0.80;;
53253;SDS011;39148;53.332;6.922;2022-09-09T10:16:53;1.67;;;0.60;;
53253;SDS011;39148;53.332;6.922;2022-09-09T10:19:32;2.55;;;0.80;;
53253;SDS011;39148;53.332;6.922;2022-09-09T10:22:12;2.40;;;0.75;;
53253;SDS011;39148;53.332;6.922;2022-09-09T10:24:56;3.70;;;0.88;;
53253;SDS011;39148;53.332;6.922;2022-09-09T10:27:33;1.75;;;0.77;;
53253;SDS011;39148;53.332;6.922;2022-09-09T10:32:49;2.35;;;0.90;;
53253;SDS011;39148;53.332;6.922;2022-09-09T10:56:38;6.20;;;1.13;;
53253;SDS011;39148;53.332;6.922;2022-09-09T10:59:11;5.20;;;1.30;;
53253;SDS011;39148;53.332;6.922;2022-09-09T11:01:43;4.47;;;0.90;;
53253;SDS011;39148;53.332;6.922;2022-09-09T11:04:19;3.60;;;0.80;;
53253;SDS011;39148;53.332;6.922;2022-09-09T11:06:50;5.30;;;1.02;;
53253;SDS011;39148;53.332;6.922;2022-09-09T11:09:26;5.68;;;1.00;;
53253;SDS011;39148;53.332;6.922;2022-09-09T11:12:01;3.53;;;0.90;;
53253;SDS011;39148;53.332;6.922;2022-09-09T11:14:43;3.22;;;0.75;;
53253;SDS011;39148;53.332;6.922;2022-09-09T11:17:36;4.45;;;1.30;;
53253;SDS011;39148;53.332;6.922;2022-09-09T11:20:11;4.55;;;0.90;;
53253;SDS011;39148;53.332;6.922;2022-09-09T11:25:23;4.40;;;0.85;;
53253;SDS011;39148;53.332;6.922;2022-09-09T11:30:22;4.95;;;1.40;;
53253;SDS011;39148;53.332;6.922;2022-09-09T11:40:40;5.75;;;1.20;;
53253;SDS011;39148;53.332;6.922;2022-09-09T11:43:11;4.03;;;0.88;;
53253;SDS011;39148;53.332;6.922;2022-09-09T11:45:49;2.80;;;1.00;;
53253;SDS011;39148;53.332;6.922;2022-09-09T11:48:26;5.35;;;0.93;;
53253;SDS011;39148;53.332;6.922;2022-09-09T11:50:58;5.78;;;1.02;;
53253;SDS011;39148;53.332;6.922;2022-09-09T11:53:31;5.07;;;0.93;;
53253;SDS011;39148;53.332;6.922;2022-09-09T11:56:58;4.50;;;0.77;;
53253;SDS011;39148;53.332;6.922;2022-09-09T11:59:23;4.20;;;0.80;;
53253;SDS011;39148;53.332;6.922;2022-09-09T12:04:47;3.60;;;0.90;;
53253;SDS011;39148;53.332;6.922;2022-09-09T12:07:30;3.65;;;1.00;;
53253;SDS011;39148;53.332;6.922;2022-09-09T12:13:15;4.05;;;0.82;;
53253;SDS011;39148;53.332;6.922;2022-09-09T12:15:52;3.80;;;0.90;;
53253;SDS011;39148;53.332;6.922;2022-09-09T12:18:23;3.45;;;0.65;;
53253;SDS011;39148;53.332;6.922;2022-09-09T12:20:52;2.78;;;0.70;;
53253;SDS011;39148;53.332;6.922;2022-09-09T12:23:30;5.05;;;0.75;;
53253;SDS011;39148;53.332;6.922;2022-09-09T12:26:19;4.95;;;1.25;;
53253;SDS011;39148;53.332;6.922;2022-09-09T12:37:33;5.60;;;0.98;;
53253;SDS011;39148;53.332;6.922;2022-09-09T12:40:03;3.70;;;0.80;;
53253;SDS011;39148;53.332;6.922;2022-09-09T12:42:31;2.83;;;0.80;;
53253;SDS011;39148;53.332;6.922;2022-09-09T12:45:00;2.95;;;0.73;;
53253;SDS011;39148;53.332;6.922;2022-09-09T12:52:50;3.28;;;0.73;;
53253;SDS011;39148;53.332;6.922;2022-09-09T12:55:20;3.28;;;1.17;;
53253;SDS011;39148;53.332;6.922;2022-09-09T12:57:50;3.30;;;0.88;;
53253;SDS011;39148;53.332;6.922;2022-09-09T13:00:17;4.85;;;0.70;;
53253;SDS011;39148;53.332;6.922;2022-09-09T13:02:58;2.60;;;0.90;;
53253;SDS011;39148;53.332;6.922;2022-09-09T13:05:27;3.60;;;0.80;;
53253;SDS011;39148;53.332;6.922;2022-09-09T13:08:05;4.43;;;1.08;;
53253;SDS011;39148;53.332;6.922;2022-09-09T13:10:43;4.05;;;0.70;;
53253;SDS011;39148;53.332;6.922;2022-09-09T13:13:23;4.22;;;0.70;;
53253;SDS011;39148;53.332;6.922;2022-09-09T13:15:55;4.32;;;0.85;;
53253;SDS011;39148;53.332;6.922;2022-09-09T13:18:23;3.72;;;0.68;;
53253;SDS011;39148;53.332;6.922;2022-09-09T13:20:57;3.05;;;0.80;;
53253;SDS011;39148;53.332;6.922;2022-09-09T13:23:25;3.25;;;0.68;;
53253;SDS011;39148;53.332;6.922;2022-09-09T13:26:19;4.35;;;0.85;;
53253;SDS011;39148;53.332;6.922;2022-09-09T13:28:50;3.53;;;0.65;;
53253;SDS011;39148;53.332;6.922;2022-09-09T13:33:53;2.92;;;0.70;;
53253;SDS011;39148;53.332;6.922;2022-09-09T13:36:29;5.28;;;0.60;;
53253;SDS011;39148;53.332;6.922;2022-09-09T13:38:57;3.40;;;0.80;;
53253;SDS011;39148;53.332;6.922;2022-09-09T13:41:43;2.67;;;0.60;;
53253;SDS011;39148;53.332;6.922;2022-09-09T13:44:20;2.50;;;0.60;;
53253;SDS011;39148;53.332;6.922;2022-09-09T13:49:39;3.17;;;0.52;;
53253;SDS011;39148;53.332;6.922;2022-09-09T13:54:34;2.97;;;0.68;;
53253;SDS011;39148;53.332;6.922;2022-09-09T13:57:00;3.33;;;0.68;;
53253;SDS011;39148;53.332;6.922;2022-09-09T13:59:26;3.55;;;0.65;;
53253;SDS011;39148;53.332;6.922;2022-09-09T14:01:52;3.65;;;0.65;;
53253;SDS011;39148;53.332;6.922;2022-09-09T14:04:19;4.07;;;0.70;;
53253;SDS011;39148;53.332;6.922;2022-09-09T14:06:47;2.53;;;0.50;;
53253;SDS011;39148;53.332;6.922;2022-09-09T14:09:15;3.50;;;0.80;;
53253;SDS011;39148;53.332;6.922;2022-09-09T14:11:41;2.28;;;0.50;;
53253;SDS011;39148;53.332;6.922;2022-09-09T14:14:07;3.30;;;0.80;;
53253;SDS011;39148;53.332;6.922;2022-09-09T14:16:33;2.90;;;0.57;;
53253;SDS011;39148;53.332;6.922;2022-09-09T14:18:59;3.25;;;0.60;;
53253;SDS011;39148;53.332;6.922;2022-09-09T14:21:26;3.40;;;0.75;;
53253;SDS011;39148;53.332;6.922;2022-09-09T14:23:53;3.10;;;0.60;;
53253;SDS011;39148;53.332;6.922;2022-09-09T14:26:20;2.95;;;0.73;;
53253;SDS011;39148;53.332;6.922;2022-09-09T14:28:47;2.97;;;0.60;;
53253;SDS011;39148;53.332;6.922;2022-09-09T14:31:13;3.15;;;0.50;;
53253;SDS011;39148;53.332;6.922;2022-09-09T14:33:39;3.30;;;1.20;;
53253;SDS011;39148;53.332;6.922;2022-09-09T14:36:05;2.05;;;0.63;;
53253;SDS011;39148;53.332;6.922;2022-09-09T14:38:32;3.53;;;0.60;;
53253;SDS011;39148;53.332;6.922;2022-09-09T14:41:04;3.20;;;0.75;;
53253;SDS011;39148;53.332;6.922;2022-09-09T14:43:37;2.33;;;0.40;;
53253;SDS011;39148;53.332;6.922;2022-09-09T14:46:04;4.07;;;0.65;;
53253;SDS011;39148;53.332;6.922;2022-09-09T14:48:34;2.15;;;0.50;;
53253;SDS011;39148;53.332;6.922;2022-09-09T14:51:20;3.78;;;1.00;;
53253;SDS011;39148;53.332;6.922;2022-09-09T14:53:48;3.00;;;0.63;;
53253;SDS011;39148;53.332;6.922;2022-09-09T14:56:26;3.75;;;0.75;;
53253;SDS011;39148;53.332;6.922;2022-09-09T14:58:55;3.30;;;0.70;;
53253;SDS011;39148;53.332;6.922;2022-09-09T15:01:21;4.15;;;0.60;;
53253;SDS011;39148;53.332;6.922;2022-09-09T15:03:49;4.40;;;0.82;;
53253;SDS011;39148;53.332;6.922;2022-09-09T15:06:20;3.47;;;0.50;;
53253;SDS011;39148;53.332;6.922;2022-09-09T15:08:47;3.80;;;0.65;;
53253;SDS011;39148;53.332;6.922;2022-09-09T15:11:15;2.85;;;0.63;;
53253;SDS011;39148;53.332;6.922;2022-09-09T15:13:41;3.03;;;0.80;;
53253;SDS011;39148;53.332;6.922;2022-09-09T15:16:09;2.78;;;0.57;;
53253;SDS011;39148;53.332;6.922;2022-09-09T15:18:37;3.05;;;0.60;;
53253;SDS011;39148;53.332;6.922;2022-09-09T15:21:07;2.70;;;0.50;;
53253;SDS011;39148;53.332;6.922;2022-09-09T15:23:35;1.75;;;0.40;;
53253;SDS011;39148;53.332;6.922;2022-09-09T15:26:01;2.17;;;0.60;;
53253;SDS011;39148;53.332;6.922;2022-09-09T15:28:28;2.85;;;0.70;;
53253;SDS011;39148;53.332;6.922;2022-09-09T15:30:54;2.58;;;0.60;;
53253;SDS011;39148;53.332;6.922;2022-09-09T15:33:20;3.60;;;0.73;;
53253;SDS011;39148;53.332;6.922;2022-09-09T15:35:47;5.60;;;0.95;;
53253;SDS011;39148;53.332;6.922;2022-09-09T15:38:13;4.78;;;0.73;;
53253;SDS011;39148;53.332;6.922;2022-09-09T15:40:41;3.20;;;0.60;;
53253;SDS011;39148;53.332;6.922;2022-09-09T15:43:08;3.00;;;0.50;;
53253;SDS011;39148;53.332;6.922;2022-09-09T15:45:35;3.33;;;0.82;;
53253;SDS011;39148;53.332;6.922;2022-09-09T15:48:02;3.88;;;0.70;;
53253;SDS011;39148;53.332;6.922;2022-09-09T15:50:29;2.30;;;0.70;;
53253;SDS011;39148;53.332;6.922;2022-09-09T15:53:01;3.28;;;0.50;;
53253;SDS011;39148;53.332;6.922;2022-09-09T15:55:27;2.05;;;0.45;;
53253;SDS011;39148;53.332;6.922;2022-09-09T15:57:53;3.78;;;0.50;;
53253;SDS011;39148;53.332;6.922;2022-09-09T16:00:20;3.53;;;0.70;;
53253;SDS011;39148;53.332;6.922;2022-09-09T16:02:46;1.33;;;0.47;;
53253;SDS011;39148;53.332;6.922;2022-09-09T16:05:12;3.00;;;0.40;;
53253;SDS011;39148;53.332;6.922;2022-09-09T16:07:38;3.28;;;0.60;;
53253;SDS011;39148;53.332;6.922;2022-09-09T16:10:04;3.15;;;0.50;;
53253;SDS011;39148;53.332;6.922;2022-09-09T16:12:31;2.65;;;0.40;;
53253;SDS011;39148;53.332;6.922;2022-09-09T16:14:56;2.03;;;0.50;;
53253;SDS011;39148;53.332;6.922;2022-09-09T16:17:22;1.77;;;0.40;;
53253;SDS011;39148;53.332;6.922;2022-09-09T16:19:48;1.42;;;0.32;;
53253;SDS011;39148;53.332;6.922;2022-09-09T16:22:13;2.13;;;0.50;;
53253;SDS011;39148;53.332;6.922;2022-09-09T16:24:40;2.55;;;0.30;;
53253;SDS011;39148;53.332;6.922;2022-09-09T16:27:06;2.08;;;0.55;;
53253;SDS011;39148;53.332;6.922;2022-09-09T16:29:32;2.15;;;0.40;;
53253;SDS011;39148;53.332;6.922;2022-09-09T16:31:58;1.55;;;0.30;;
53253;SDS011;39148;53.332;6.922;2022-09-09T16:34:25;3.17;;;0.40;;
53253;SDS011;39148;53.332;6.922;2022-09-09T16:36:50;2.65;;;0.55;;
53253;SDS011;39148;53.332;6.922;2022-09-09T16:39:17;2.88;;;0.43;;
53253;SDS011;39148;53.332;6.922;2022-09-09T16:41:44;2.80;;;0.70;;
53253;SDS011;39148;53.332;6.922;2022-09-09T16:44:13;2.70;;;0.40;;
53253;SDS011;39148;53.332;6.922;2022-09-09T16:46:41;3.25;;;0.60;;
53253;SDS011;39148;53.332;6.922;2022-09-09T16:49:09;2.22;;;0.40;;
53253;SDS011;39148;53.332;6.922;2022-09-09T16:51:37;0.93;;;0.28;;
53253;SDS011;39148;53.332;6.922;2022-09-09T16:54:12;2.85;;;0.40;;
53253;SDS011;39148;53.332;6.922;2022-09-09T16:56:39;2.15;;;0.47;;
53253;SDS011;39148;53.332;6.922;2022-09-09T16:59:08;3.03;;;0.40;;
53253;SDS011;39148;53.332;6.922;2022-09-09T17:01:37;1.38;;;0.40;;
53253;SDS011;39148;53.332;6.922;2022-09-09T17:04:09;1.88;;;0.40;;
53253;SDS011;39148;53.332;6.922;2022-09-09T17:06:38;1.60;;;0.30;;
53253;SDS011;39148;53.332;6.922;2022-09-09T17:09:05;2.03;;;0.25;;
53253;SDS011;39148;53.332;6.922;2022-09-09T17:11:32;1.38;;;0.38;;
53253;SDS011;39148;53.332;6.922;2022-09-09T17:13:59;1.95;;;0.30;;
53253;SDS011;39148;53.332;6.922;2022-09-09T17:16:26;2.03;;;0.40;;
53253;SDS011;39148;53.332;6.922;2022-09-09T17:18:54;1.88;;;0.30;;
53253;SDS011;39148;53.332;6.922;2022-09-09T17:21:22;2.05;;;0.50;;
53253;SDS011;39148;53.332;6.922;2022-09-09T17:23:50;2.08;;;0.40;;